sensor_id;sensor_type;location;lat;lon;timestamp;P1;durP1;ratioP1;P2;durP2;ratioP2
54241;SDS011;40156;51.080;17.082;2023-04-15T00:00:56;13.27;;;8.25;;
54241;SDS011;40156;51.080;17.082;2023-04-15T00:03:24;14.35;;;8.57;;
54241;SDS011;40156;51.080;17.082;2023-04-15T00:05:52;16.25;;;8.55;;
54241;SDS011;40156;51.080;17.082;2023-04-15T00:08:20;14.48;;;7.55;;
54241;SDS011;40156;51.080;17.082;2023-04-15T00:10:47;14.45;;;8.73;;
54241;SDS011;40156;51.080;17.082;2023-04-15T00:13:15;15.52;;;7.30;;
54241;SDS011;40156;51.080;17.082;2023-04-15T00:15:42;14.45;;;8.00;;
54241;SDS011;40156;51.080;17.082;2023-04-15T00:18:10;13.38;;;7.60;;
54241;SDS011;40156;51.080;17.082;2023-04-15T00:20:37;11.68;;;7.65;;
54241;SDS011;40156;51.080;17.082;2023-04-15T00:23:05;14.82;;;7.60;;
54241;SDS011;40156;51.080;17.082;2023-04-15T00:25:32;17.00;;;7.57;;
54241;SDS011;40156;51.080;17.082;2023-04-15T00:28:00;13.75;;;7.90;;
54241;SDS011;40156;51.080;17.082;2023-04-15T00:30:27;12.93;;;7.55;;
54241;SDS011;40156;51.080;17.082;2023-04-15T00:32:55;19.17;;;7.55;;
54241;SDS011;40156;51.080;17.082;2023-04-15T00:35:41;13.70;;;7.97;;
54241;SDS011;40156;51.080;17.082;2023-04-15T00:38:09;12.55;;;7.95;;
54241;SDS011;40156;51.080;17.082;2023-04-15T00:40:36;14.45;;;7.90;;
54241;SDS011;40156;51.080;17.082;2023-04-15T00:43:04;14.95;;;8.30;;
54241;SDS011;40156;51.080;17.082;2023-04-15T00:45:31;13.93;;;7.90;;
54241;SDS011;40156;51.080;17.082;2023-04-15T00:47:59;13.43;;;7.45;;
54241;SDS011;40156;51.080;17.082;2023-04-15T00:50:26;13.05;;;8.13;;
54241;SDS011;40156;51.080;17.082;2023-04-15T00:52:54;12.55;;;7.65;;
54241;SDS011;40156;51.080;17.082;2023-04-15T00:55:21;14.57;;;8.88;;
54241;SDS011;40156;51.080;17.082;2023-04-15T00:57:49;14.18;;;7.75;;
54241;SDS011;40156;51.080;17.082;2023-04-15T01:00:16;13.23;;;8.50;;
54241;SDS011;40156;51.080;17.082;2023-04-15T01:02:44;14.10;;;7.53;;
54241;SDS011;40156;51.080;17.082;2023-04-15T01:05:12;17.33;;;8.38;;
54241;SDS011;40156;51.080;17.082;2023-04-15T01:07:40;17.17;;;8.90;;
54241;SDS011;40156;51.080;17.082;2023-04-15T01:10:07;12.93;;;8.35;;
54241;SDS011;40156;51.080;17.082;2023-04-15T01:12:35;13.02;;;7.72;;
54241;SDS011;40156;51.080;17.082;2023-04-15T01:15:02;13.25;;;8.32;;
54241;SDS011;40156;51.080;17.082;2023-04-15T01:17:30;12.60;;;7.00;;
54241;SDS011;40156;51.080;17.082;2023-04-15T01:20:00;11.95;;;8.15;;
54241;SDS011;40156;51.080;17.082;2023-04-15T01:22:28;13.40;;;7.22;;
54241;SDS011;40156;51.080;17.082;2023-04-15T01:25:05;12.40;;;7.90;;
54241;SDS011;40156;51.080;17.082;2023-04-15T01:27:33;12.68;;;7.22;;
54241;SDS011;40156;51.080;17.082;2023-04-15T01:30:00;12.60;;;7.75;;
54241;SDS011;40156;51.080;17.082;2023-04-15T01:32:28;13.23;;;8.07;;
54241;SDS011;40156;51.080;17.082;2023-04-15T01:34:58;14.52;;;8.85;;
54241;SDS011;40156;51.080;17.082;2023-04-15T01:37:25;11.63;;;7.32;;
54241;SDS011;40156;51.080;17.082;2023-04-15T01:39:53;17.08;;;8.48;;
54241;SDS011;40156;51.080;17.082;2023-04-15T01:42:20;15.13;;;9.13;;
54241;SDS011;40156;51.080;17.082;2023-04-15T01:44:47;15.32;;;8.45;;
54241;SDS011;40156;51.080;17.082;2023-04-15T01:47:15;12.02;;;8.15;;
54241;SDS011;40156;51.080;17.082;2023-04-15T01:49:42;14.05;;;8.50;;
54241;SDS011;40156;51.080;17.082;2023-04-15T01:52:10;14.88;;;8.32;;
54241;SDS011;40156;51.080;17.082;2023-04-15T01:54:37;12.95;;;8.52;;
54241;SDS011;40156;51.080;17.082;2023-04-15T01:57:05;13.77;;;7.70;;
54241;SDS011;40156;51.080;17.082;2023-04-15T01:59:32;16.38;;;7.72;;
54241;SDS011;40156;51.080;17.082;2023-04-15T02:02:00;11.27;;;7.85;;
54241;SDS011;40156;51.080;17.082;2023-04-15T02:04:27;15.23;;;8.48;;
54241;SDS011;40156;51.080;17.082;2023-04-15T02:06:58;13.73;;;7.78;;
54241;SDS011;40156;51.080;17.082;2023-04-15T02:09:25;16.55;;;8.68;;
54241;SDS011;40156;51.080;17.082;2023-04-15T02:11:53;15.23;;;8.50;;
54241;SDS011;40156;51.080;17.082;2023-04-15T02:14:20;14.77;;;8.25;;
54241;SDS011;40156;51.080;17.082;2023-04-15T02:16:48;14.15;;;8.48;;
54241;SDS011;40156;51.080;17.082;2023-04-15T02:19:15;18.67;;;8.52;;
54241;SDS011;40156;51.080;17.082;2023-04-15T02:21:43;15.57;;;9.13;;
54241;SDS011;40156;51.080;17.082;2023-04-15T02:24:10;15.65;;;8.55;;
54241;SDS011;40156;51.080;17.082;2023-04-15T02:26:38;15.48;;;9.55;;
54241;SDS011;40156;51.080;17.082;2023-04-15T02:29:05;14.50;;;9.27;;
54241;SDS011;40156;51.080;17.082;2023-04-15T02:31:33;14.27;;;9.27;;
54241;SDS011;40156;51.080;17.082;2023-04-15T02:34:00;16.15;;;8.77;;
54241;SDS011;40156;51.080;17.082;2023-04-15T02:36:28;15.70;;;8.90;;
54241;SDS011;40156;51.080;17.082;2023-04-15T02:38:55;14.48;;;8.98;;
54241;SDS011;40156;51.080;17.082;2023-04-15T02:41:23;15.88;;;9.10;;
54241;SDS011;40156;51.080;17.082;2023-04-15T02:43:50;16.48;;;8.77;;
54241;SDS011;40156;51.080;17.082;2023-04-15T02:46:18;16.67;;;9.68;;
54241;SDS011;40156;51.080;17.082;2023-04-15T02:48:45;17.10;;;9.85;;
54241;SDS011;40156;51.080;17.082;2023-04-15T02:51:16;17.63;;;9.88;;
54241;SDS011;40156;51.080;17.082;2023-04-15T02:53:44;20.17;;;10.90;;
54241;SDS011;40156;51.080;17.082;2023-04-15T02:56:12;17.50;;;10.13;;
54241;SDS011;40156;51.080;17.082;2023-04-15T02:58:40;18.80;;;10.73;;
54241;SDS011;40156;51.080;17.082;2023-04-15T03:01:14;18.40;;;10.23;;
54241;SDS011;40156;51.080;17.082;2023-04-15T03:03:42;19.38;;;10.02;;
54241;SDS011;40156;51.080;17.082;2023-04-15T03:06:10;19.58;;;10.27;;
54241;SDS011;40156;51.080;17.082;2023-04-15T03:08:37;16.48;;;10.27;;
54241;SDS011;40156;51.080;17.082;2023-04-15T03:11:05;22.40;;;11.35;;
54241;SDS011;40156;51.080;17.082;2023-04-15T03:13:32;19.73;;;10.57;;
54241;SDS011;40156;51.080;17.082;2023-04-15T03:16:00;21.75;;;10.18;;
54241;SDS011;40156;51.080;17.082;2023-04-15T03:18:27;16.88;;;9.35;;
54241;SDS011;40156;51.080;17.082;2023-04-15T03:20:55;20.38;;;9.68;;
54241;SDS011;40156;51.080;17.082;2023-04-15T03:23:24;19.23;;;10.80;;
54241;SDS011;40156;51.080;17.082;2023-04-15T03:25:51;18.83;;;10.02;;
54241;SDS011;40156;51.080;17.082;2023-04-15T03:28:18;16.23;;;8.55;;
54241;SDS011;40156;51.080;17.082;2023-04-15T03:30:46;15.15;;;8.60;;
54241;SDS011;40156;51.080;17.082;2023-04-15T03:33:13;18.92;;;9.82;;
54241;SDS011;40156;51.080;17.082;2023-04-15T03:35:41;18.48;;;9.75;;
54241;SDS011;40156;51.080;17.082;2023-04-15T03:38:08;20.48;;;9.50;;
54241;SDS011;40156;51.080;17.082;2023-04-15T03:40:37;18.80;;;9.30;;
54241;SDS011;40156;51.080;17.082;2023-04-15T03:43:04;20.05;;;9.80;;
54241;SDS011;40156;51.080;17.082;2023-04-15T03:45:32;20.90;;;10.25;;
54241;SDS011;40156;51.080;17.082;2023-04-15T03:47:59;23.40;;;10.57;;
54241;SDS011;40156;51.080;17.082;2023-04-15T03:50:43;19.48;;;9.80;;
54241;SDS011;40156;51.080;17.082;2023-04-15T03:53:10;19.83;;;10.25;;
54241;SDS011;40156;51.080;17.082;2023-04-15T03:55:38;18.48;;;10.35;;
54241;SDS011;40156;51.080;17.082;2023-04-15T03:58:05;18.52;;;9.50;;
54241;SDS011;40156;51.080;17.082;2023-04-15T04:00:34;18.88;;;9.07;;
54241;SDS011;40156;51.080;17.082;2023-04-15T04:03:01;20.73;;;10.18;;
54241;SDS011;40156;51.080;17.082;2023-04-15T04:05:29;19.67;;;10.25;;
54241;SDS011;40156;51.080;17.082;2023-04-15T04:07:57;20.90;;;10.73;;
54241;SDS011;40156;51.080;17.082;2023-04-15T04:10:25;20.95;;;10.35;;
54241;SDS011;40156;51.080;17.082;2023-04-15T04:12:52;19.33;;;9.55;;
54241;SDS011;40156;51.080;17.082;2023-04-15T04:15:20;21.90;;;10.07;;
54241;SDS011;40156;51.080;17.082;2023-04-15T04:17:47;21.02;;;9.93;;
54241;SDS011;40156;51.080;17.082;2023-04-15T04:20:15;20.13;;;10.73;;
54241;SDS011;40156;51.080;17.082;2023-04-15T04:22:42;19.58;;;9.93;;
54241;SDS011;40156;51.080;17.082;2023-04-15T04:25:09;20.13;;;9.95;;
54241;SDS011;40156;51.080;17.082;2023-04-15T04:27:37;19.45;;;9.65;;
54241;SDS011;40156;51.080;17.082;2023-04-15T04:30:05;19.00;;;9.27;;
54241;SDS011;40156;51.080;17.082;2023-04-15T04:32:32;17.05;;;8.15;;
54241;SDS011;40156;51.080;17.082;2023-04-15T04:35:03;17.13;;;8.20;;
54241;SDS011;40156;51.080;17.082;2023-04-15T04:37:30;17.77;;;8.43;;
54241;SDS011;40156;51.080;17.082;2023-04-15T04:39:58;15.57;;;8.48;;
54241;SDS011;40156;51.080;17.082;2023-04-15T04:42:26;17.25;;;8.52;;
54241;SDS011;40156;51.080;17.082;2023-04-15T04:44:53;15.25;;;6.72;;
54241;SDS011;40156;51.080;17.082;2023-04-15T04:47:21;12.00;;;6.65;;
54241;SDS011;40156;51.080;17.082;2023-04-15T04:49:48;16.48;;;6.35;;
54241;SDS011;40156;51.080;17.082;2023-04-15T04:52:16;9.13;;;5.20;;
54241;SDS011;40156;51.080;17.082;2023-04-15T04:54:43;10.15;;;5.28;;
54241;SDS011;40156;51.080;17.082;2023-04-15T04:57:11;10.43;;;4.47;;
54241;SDS011;40156;51.080;17.082;2023-04-15T04:59:38;8.90;;;4.43;;
54241;SDS011;40156;51.080;17.082;2023-04-15T05:02:06;7.05;;;3.83;;
54241;SDS011;40156;51.080;17.082;2023-04-15T05:04:34;8.05;;;4.00;;
54241;SDS011;40156;51.080;17.082;2023-04-15T05:07:01;7.60;;;4.15;;
54241;SDS011;40156;51.080;17.082;2023-04-15T05:09:29;5.07;;;3.15;;
54241;SDS011;40156;51.080;17.082;2023-04-15T05:11:56;6.75;;;3.63;;
54241;SDS011;40156;51.080;17.082;2023-04-15T05:14:24;6.65;;;3.70;;
54241;SDS011;40156;51.080;17.082;2023-04-15T05:16:51;5.55;;;2.97;;
54241;SDS011;40156;51.080;17.082;2023-04-15T05:19:19;5.05;;;3.38;;
54241;SDS011;40156;51.080;17.082;2023-04-15T05:21:46;6.50;;;3.20;;
54241;SDS011;40156;51.080;17.082;2023-04-15T05:24:14;8.25;;;3.50;;
54241;SDS011;40156;51.080;17.082;2023-04-15T05:26:41;5.15;;;2.70;;
54241;SDS011;40156;51.080;17.082;2023-04-15T05:29:09;5.63;;;2.85;;
54241;SDS011;40156;51.080;17.082;2023-04-15T05:31:36;5.20;;;2.97;;
54241;SDS011;40156;51.080;17.082;2023-04-15T05:34:04;3.97;;;2.38;;
54241;SDS011;40156;51.080;17.082;2023-04-15T05:36:31;5.72;;;2.90;;
54241;SDS011;40156;51.080;17.082;2023-04-15T05:38:59;5.45;;;3.28;;
54241;SDS011;40156;51.080;17.082;2023-04-15T05:41:27;4.85;;;2.97;;
54241;SDS011;40156;51.080;17.082;2023-04-15T05:43:54;4.65;;;2.90;;
54241;SDS011;40156;51.080;17.082;2023-04-15T05:46:22;5.22;;;3.03;;
54241;SDS011;40156;51.080;17.082;2023-04-15T05:48:49;5.35;;;2.83;;
54241;SDS011;40156;51.080;17.082;2023-04-15T05:51:17;6.13;;;2.90;;
54241;SDS011;40156;51.080;17.082;2023-04-15T05:53:44;6.88;;;3.28;;
54241;SDS011;40156;51.080;17.082;2023-04-15T05:56:12;5.07;;;2.63;;
54241;SDS011;40156;51.080;17.082;2023-04-15T05:58:39;6.78;;;3.10;;
54241;SDS011;40156;51.080;17.082;2023-04-15T06:01:07;5.13;;;3.20;;
54241;SDS011;40156;51.080;17.082;2023-04-15T06:03:34;4.00;;;2.45;;
54241;SDS011;40156;51.080;17.082;2023-04-15T06:06:08;3.60;;;2.67;;
54241;SDS011;40156;51.080;17.082;2023-04-15T06:08:36;3.72;;;2.25;;
54241;SDS011;40156;51.080;17.082;2023-04-15T06:11:03;3.72;;;2.50;;
54241;SDS011;40156;51.080;17.082;2023-04-15T06:13:31;9.15;;;2.30;;
54241;SDS011;40156;51.080;17.082;2023-04-15T06:15:58;2.55;;;1.63;;
54241;SDS011;40156;51.080;17.082;2023-04-15T06:18:26;1.83;;;1.13;;
54241;SDS011;40156;51.080;17.082;2023-04-15T06:20:53;3.63;;;1.50;;
54241;SDS011;40156;51.080;17.082;2023-04-15T06:23:21;1.27;;;1.17;;
54241;SDS011;40156;51.080;17.082;2023-04-15T06:25:48;2.60;;;0.90;;
54241;SDS011;40156;51.080;17.082;2023-04-15T06:28:16;1.33;;;1.02;;
54241;SDS011;40156;51.080;17.082;2023-04-15T06:30:43;2.10;;;1.10;;
54241;SDS011;40156;51.080;17.082;2023-04-15T06:33:11;0.60;;;0.60;;
54241;SDS011;40156;51.080;17.082;2023-04-15T06:35:38;0.85;;;0.75;;
54241;SDS011;40156;51.080;17.082;2023-04-15T06:38:06;1.58;;;0.98;;
54241;SDS011;40156;51.080;17.082;2023-04-15T06:40:33;2.33;;;0.80;;
54241;SDS011;40156;51.080;17.082;2023-04-15T06:43:01;1.58;;;1.13;;
54241;SDS011;40156;51.080;17.082;2023-04-15T06:45:28;2.25;;;1.30;;
54241;SDS011;40156;51.080;17.082;2023-04-15T06:48:03;1.45;;;1.13;;
54241;SDS011;40156;51.080;17.082;2023-04-15T06:50:30;2.30;;;1.10;;
54241;SDS011;40156;51.080;17.082;2023-04-15T06:52:58;1.92;;;1.27;;
54241;SDS011;40156;51.080;17.082;2023-04-15T06:55:25;2.45;;;1.33;;
54241;SDS011;40156;51.080;17.082;2023-04-15T06:57:53;2.40;;;1.30;;
54241;SDS011;40156;51.080;17.082;2023-04-15T07:00:20;1.55;;;1.00;;
54241;SDS011;40156;51.080;17.082;2023-04-15T07:02:48;1.85;;;1.00;;
54241;SDS011;40156;51.080;17.082;2023-04-15T07:05:16;1.35;;;1.00;;
54241;SDS011;40156;51.080;17.082;2023-04-15T07:07:44;3.25;;;1.40;;
54241;SDS011;40156;51.080;17.082;2023-04-15T07:10:11;2.47;;;1.05;;
54241;SDS011;40156;51.080;17.082;2023-04-15T07:12:39;1.48;;;0.90;;
54241;SDS011;40156;51.080;17.082;2023-04-15T07:15:07;4.40;;;2.45;;
54241;SDS011;40156;51.080;17.082;2023-04-15T07:17:34;3.63;;;1.38;;
54241;SDS011;40156;51.080;17.082;2023-04-15T07:20:02;1.27;;;0.93;;
54241;SDS011;40156;51.080;17.082;2023-04-15T07:22:29;0.77;;;0.70;;
54241;SDS011;40156;51.080;17.082;2023-04-15T07:24:57;1.05;;;0.90;;
54241;SDS011;40156;51.080;17.082;2023-04-15T07:27:25;0.82;;;0.73;;
54241;SDS011;40156;51.080;17.082;2023-04-15T07:29:52;1.55;;;0.93;;
54241;SDS011;40156;51.080;17.082;2023-04-15T07:32:19;0.98;;;0.65;;
54241;SDS011;40156;51.080;17.082;2023-04-15T07:34:47;1.48;;;0.65;;
54241;SDS011;40156;51.080;17.082;2023-04-15T07:37:15;0.88;;;0.65;;
54241;SDS011;40156;51.080;17.082;2023-04-15T07:39:42;1.05;;;0.60;;
54241;SDS011;40156;51.080;17.082;2023-04-15T07:42:10;1.42;;;0.77;;
54241;SDS011;40156;51.080;17.082;2023-04-15T07:44:37;0.82;;;0.73;;
54241;SDS011;40156;51.080;17.082;2023-04-15T07:47:05;1.88;;;1.08;;
54241;SDS011;40156;51.080;17.082;2023-04-15T07:49:32;3.97;;;1.17;;
54241;SDS011;40156;51.080;17.082;2023-04-15T07:52:00;2.50;;;0.80;;
54241;SDS011;40156;51.080;17.082;2023-04-15T07:54:27;1.83;;;0.75;;
54241;SDS011;40156;51.080;17.082;2023-04-15T07:56:55;1.48;;;0.90;;
54241;SDS011;40156;51.080;17.082;2023-04-15T07:59:22;24.30;;;10.30;;
54241;SDS011;40156;51.080;17.082;2023-04-15T08:01:50;0.73;;;0.60;;
54241;SDS011;40156;51.080;17.082;2023-04-15T08:04:19;1.95;;;0.70;;
54241;SDS011;40156;51.080;17.082;2023-04-15T08:06:47;0.93;;;0.60;;
54241;SDS011;40156;51.080;17.082;2023-04-15T08:09:15;2.45;;;0.70;;
54241;SDS011;40156;51.080;17.082;2023-04-15T08:11:42;0.82;;;0.50;;
54241;SDS011;40156;51.080;17.082;2023-04-15T08:14:10;1.52;;;0.82;;
54241;SDS011;40156;51.080;17.082;2023-04-15T08:16:37;1.00;;;0.63;;
54241;SDS011;40156;51.080;17.082;2023-04-15T08:19:05;0.80;;;0.57;;
54241;SDS011;40156;51.080;17.082;2023-04-15T08:21:33;1.05;;;0.70;;
54241;SDS011;40156;51.080;17.082;2023-04-15T08:24:00;1.63;;;1.10;;
54241;SDS011;40156;51.080;17.082;2023-04-15T08:26:28;1.90;;;1.00;;
54241;SDS011;40156;51.080;17.082;2023-04-15T08:28:55;4.88;;;1.83;;
54241;SDS011;40156;51.080;17.082;2023-04-15T08:31:25;1.20;;;0.90;;
54241;SDS011;40156;51.080;17.082;2023-04-15T08:33:52;0.80;;;0.52;;
54241;SDS011;40156;51.080;17.082;2023-04-15T08:36:23;1.75;;;1.20;;
54241;SDS011;40156;51.080;17.082;2023-04-15T08:38:50;2.22;;;0.70;;
54241;SDS011;40156;51.080;17.082;2023-04-15T08:41:23;3.00;;;1.48;;
54241;SDS011;40156;51.080;17.082;2023-04-15T08:43:51;2.40;;;1.38;;
54241;SDS011;40156;51.080;17.082;2023-04-15T08:46:19;2.83;;;1.35;;
54241;SDS011;40156;51.080;17.082;2023-04-15T08:48:47;1.02;;;0.70;;
54241;SDS011;40156;51.080;17.082;2023-04-15T08:51:15;0.98;;;0.60;;
54241;SDS011;40156;51.080;17.082;2023-04-15T08:53:43;0.40;;;0.40;;
54241;SDS011;40156;51.080;17.082;2023-04-15T08:56:11;0.93;;;0.50;;
54241;SDS011;40156;51.080;17.082;2023-04-15T08:58:40;0.38;;;0.38;;
54241;SDS011;40156;51.080;17.082;2023-04-15T09:01:08;2.25;;;0.40;;
54241;SDS011;40156;51.080;17.082;2023-04-15T09:03:35;1.63;;;0.50;;
54241;SDS011;40156;51.080;17.082;2023-04-15T09:06:04;0.70;;;0.70;;
54241;SDS011;40156;51.080;17.082;2023-04-15T09:08:32;0.98;;;0.60;;
54241;SDS011;40156;51.080;17.082;2023-04-15T09:11:02;0.75;;;0.50;;
54241;SDS011;40156;51.080;17.082;2023-04-15T09:13:30;6.68;;;0.60;;
54241;SDS011;40156;51.080;17.082;2023-04-15T09:15:57;0.82;;;0.43;;
54241;SDS011;40156;51.080;17.082;2023-04-15T09:18:31;0.65;;;0.40;;
54241;SDS011;40156;51.080;17.082;2023-04-15T09:21:05;0.47;;;0.45;;
54241;SDS011;40156;51.080;17.082;2023-04-15T09:23:33;0.63;;;0.40;;
54241;SDS011;40156;51.080;17.082;2023-04-15T09:26:01;1.27;;;0.93;;
54241;SDS011;40156;51.080;17.082;2023-04-15T09:28:29;1.42;;;0.93;;
54241;SDS011;40156;51.080;17.082;2023-04-15T09:31:00;0.75;;;0.50;;
54241;SDS011;40156;51.080;17.082;2023-04-15T09:33:28;0.57;;;0.50;;
54241;SDS011;40156;51.080;17.082;2023-04-15T09:38:24;0.82;;;0.50;;
54241;SDS011;40156;51.080;17.082;2023-04-15T09:40:52;1.13;;;0.57;;
54241;SDS011;40156;51.080;17.082;2023-04-15T09:43:20;0.45;;;0.30;;
54241;SDS011;40156;51.080;17.082;2023-04-15T09:45:48;0.52;;;0.40;;
54241;SDS011;40156;51.080;17.082;2023-04-15T09:48:20;0.70;;;0.40;;
54241;SDS011;40156;51.080;17.082;2023-04-15T09:50:48;0.80;;;0.35;;
54241;SDS011;40156;51.080;17.082;2023-04-15T09:53:19;1.65;;;1.15;;
54241;SDS011;40156;51.080;17.082;2023-04-15T09:55:51;2.47;;;1.30;;
54241;SDS011;40156;51.080;17.082;2023-04-15T09:58:25;0.60;;;0.47;;
54241;SDS011;40156;51.080;17.082;2023-04-15T10:00:54;0.40;;;0.35;;
54241;SDS011;40156;51.080;17.082;2023-04-15T10:03:26;0.30;;;0.30;;
54241;SDS011;40156;51.080;17.082;2023-04-15T10:05:54;0.55;;;0.30;;
54241;SDS011;40156;51.080;17.082;2023-04-15T10:08:23;3.15;;;2.13;;
54241;SDS011;40156;51.080;17.082;2023-04-15T10:10:51;0.30;;;0.30;;
54241;SDS011;40156;51.080;17.082;2023-04-15T10:13:29;0.45;;;0.40;;
54241;SDS011;40156;51.080;17.082;2023-04-15T10:18:25;0.68;;;0.38;;
54241;SDS011;40156;51.080;17.082;2023-04-15T10:20:53;0.30;;;0.20;;
54241;SDS011;40156;51.080;17.082;2023-04-15T10:23:21;0.38;;;0.38;;
54241;SDS011;40156;51.080;17.082;2023-04-15T10:25:50;0.50;;;0.32;;
54241;SDS011;40156;51.080;17.082;2023-04-15T10:28:18;0.65;;;0.30;;
54241;SDS011;40156;51.080;17.082;2023-04-15T10:30:46;0.30;;;0.20;;
54241;SDS011;40156;51.080;17.082;2023-04-15T10:33:14;0.50;;;0.30;;
54241;SDS011;40156;51.080;17.082;2023-04-15T10:35:43;0.40;;;0.40;;
54241;SDS011;40156;51.080;17.082;2023-04-15T10:43:49;3.05;;;0.80;;
54241;SDS011;40156;51.080;17.082;2023-04-15T10:46:23;0.32;;;0.22;;
54241;SDS011;40156;51.080;17.082;2023-04-15T10:49:00;0.38;;;0.30;;
54241;SDS011;40156;51.080;17.082;2023-04-15T10:51:36;0.20;;;0.20;;
54241;SDS011;40156;51.080;17.082;2023-04-15T10:56:33;0.45;;;0.40;;
54241;SDS011;40156;51.080;17.082;2023-04-15T10:59:04;0.70;;;0.35;;
54241;SDS011;40156;51.080;17.082;2023-04-15T11:01:50;2.00;;;0.40;;
54241;SDS011;40156;51.080;17.082;2023-04-15T11:07:08;0.47;;;0.40;;
54241;SDS011;40156;51.080;17.082;2023-04-15T11:09:35;1.13;;;0.40;;
54241;SDS011;40156;51.080;17.082;2023-04-15T11:12:09;0.30;;;0.30;;
54241;SDS011;40156;51.080;17.082;2023-04-15T11:14:39;0.30;;;0.30;;
54241;SDS011;40156;51.080;17.082;2023-04-15T11:17:07;0.40;;;0.30;;
54241;SDS011;40156;51.080;17.082;2023-04-15T11:19:35;0.45;;;0.30;;
54241;SDS011;40156;51.080;17.082;2023-04-15T11:22:06;0.60;;;0.50;;
54241;SDS011;40156;51.080;17.082;2023-04-15T11:24:33;0.30;;;0.30;;
54241;SDS011;40156;51.080;17.082;2023-04-15T11:27:01;2.58;;;0.63;;
54241;SDS011;40156;51.080;17.082;2023-04-15T11:29:29;0.57;;;0.47;;
54241;SDS011;40156;51.080;17.082;2023-04-15T11:32:04;0.40;;;0.35;;
54241;SDS011;40156;51.080;17.082;2023-04-15T11:34:31;0.70;;;0.40;;
54241;SDS011;40156;51.080;17.082;2023-04-15T11:37:05;0.30;;;0.30;;
54241;SDS011;40156;51.080;17.082;2023-04-15T11:39:32;0.77;;;0.40;;
54241;SDS011;40156;51.080;17.082;2023-04-15T11:42:00;0.80;;;0.50;;
54241;SDS011;40156;51.080;17.082;2023-04-15T11:44:27;0.50;;;0.40;;
54241;SDS011;40156;51.080;17.082;2023-04-15T11:46:55;0.82;;;0.47;;
54241;SDS011;40156;51.080;17.082;2023-04-15T11:49:29;0.50;;;0.50;;
54241;SDS011;40156;51.080;17.082;2023-04-15T11:51:56;0.40;;;0.40;;
54241;SDS011;40156;51.080;17.082;2023-04-15T11:54:24;0.43;;;0.40;;
54241;SDS011;40156;51.080;17.082;2023-04-15T11:56:51;1.15;;;0.50;;
54241;SDS011;40156;51.080;17.082;2023-04-15T11:59:19;0.57;;;0.52;;
54241;SDS011;40156;51.080;17.082;2023-04-15T12:01:46;0.35;;;0.30;;
54241;SDS011;40156;51.080;17.082;2023-04-15T12:04:15;1.00;;;0.63;;
54241;SDS011;40156;51.080;17.082;2023-04-15T12:06:43;0.63;;;0.50;;
54241;SDS011;40156;51.080;17.082;2023-04-15T12:09:11;0.93;;;0.60;;
54241;SDS011;40156;51.080;17.082;2023-04-15T12:14:20;0.40;;;0.40;;
54241;SDS011;40156;51.080;17.082;2023-04-15T12:16:49;0.50;;;0.40;;
54241;SDS011;40156;51.080;17.082;2023-04-15T12:19:22;0.47;;;0.40;;
54241;SDS011;40156;51.080;17.082;2023-04-15T12:21:51;0.75;;;0.60;;
54241;SDS011;40156;51.080;17.082;2023-04-15T12:24:20;0.50;;;0.50;;
54241;SDS011;40156;51.080;17.082;2023-04-15T12:26:49;0.57;;;0.50;;
54241;SDS011;40156;51.080;17.082;2023-04-15T12:29:17;0.43;;;0.43;;
54241;SDS011;40156;51.080;17.082;2023-04-15T12:34:15;1.27;;;0.50;;
54241;SDS011;40156;51.080;17.082;2023-04-15T12:36:43;0.75;;;0.65;;
54241;SDS011;40156;51.080;17.082;2023-04-15T12:39:11;0.60;;;0.43;;
54241;SDS011;40156;51.080;17.082;2023-04-15T12:41:39;1.27;;;0.60;;
54241;SDS011;40156;51.080;17.082;2023-04-15T12:44:06;0.55;;;0.40;;
54241;SDS011;40156;51.080;17.082;2023-04-15T12:46:34;0.40;;;0.40;;
54241;SDS011;40156;51.080;17.082;2023-04-15T12:49:01;1.70;;;0.50;;
54241;SDS011;40156;51.080;17.082;2023-04-15T12:51:29;0.70;;;0.60;;
54241;SDS011;40156;51.080;17.082;2023-04-15T12:53:56;0.63;;;0.55;;
54241;SDS011;40156;51.080;17.082;2023-04-15T12:56:24;0.95;;;0.40;;
54241;SDS011;40156;51.080;17.082;2023-04-15T12:58:52;0.95;;;0.50;;
54241;SDS011;40156;51.080;17.082;2023-04-15T13:01:19;0.85;;;0.57;;
54241;SDS011;40156;51.080;17.082;2023-04-15T13:03:47;1.05;;;0.52;;
54241;SDS011;40156;51.080;17.082;2023-04-15T13:06:15;0.57;;;0.57;;
54241;SDS011;40156;51.080;17.082;2023-04-15T13:08:42;0.63;;;0.43;;
54241;SDS011;40156;51.080;17.082;2023-04-15T13:13:52;1.13;;;0.50;;
54241;SDS011;40156;51.080;17.082;2023-04-15T13:16:19;0.35;;;0.35;;
54241;SDS011;40156;51.080;17.082;2023-04-15T13:18:47;0.85;;;0.63;;
54241;SDS011;40156;51.080;17.082;2023-04-15T13:21:15;0.40;;;0.40;;
54241;SDS011;40156;51.080;17.082;2023-04-15T13:23:42;1.52;;;0.60;;
54241;SDS011;40156;51.080;17.082;2023-04-15T13:26:10;0.75;;;0.40;;
54241;SDS011;40156;51.080;17.082;2023-04-15T13:28:37;0.40;;;0.40;;
54241;SDS011;40156;51.080;17.082;2023-04-15T13:31:05;1.52;;;1.00;;
54241;SDS011;40156;51.080;17.082;2023-04-15T13:33:32;0.93;;;0.50;;
54241;SDS011;40156;51.080;17.082;2023-04-15T13:36:00;0.80;;;0.55;;
54241;SDS011;40156;51.080;17.082;2023-04-15T13:38:27;1.95;;;0.75;;
54241;SDS011;40156;51.080;17.082;2023-04-15T13:40:55;1.15;;;0.57;;
54241;SDS011;40156;51.080;17.082;2023-04-15T13:43:22;1.48;;;0.50;;
54241;SDS011;40156;51.080;17.082;2023-04-15T13:45:50;0.88;;;0.50;;
54241;SDS011;40156;51.080;17.082;2023-04-15T13:48:17;0.75;;;0.60;;
54241;SDS011;40156;51.080;17.082;2023-04-15T13:50:45;2.10;;;0.65;;
54241;SDS011;40156;51.080;17.082;2023-04-15T13:53:12;1.42;;;0.68;;
54241;SDS011;40156;51.080;17.082;2023-04-15T13:55:40;0.77;;;0.60;;
54241;SDS011;40156;51.080;17.082;2023-04-15T13:58:07;5.07;;;2.45;;
54241;SDS011;40156;51.080;17.082;2023-04-15T14:00:35;1.45;;;0.55;;
54241;SDS011;40156;51.080;17.082;2023-04-15T14:03:03;2.50;;;0.85;;
54241;SDS011;40156;51.080;17.082;2023-04-15T14:05:31;0.47;;;0.43;;
54241;SDS011;40156;51.080;17.082;2023-04-15T14:07:59;1.08;;;0.50;;
54241;SDS011;40156;51.080;17.082;2023-04-15T14:10:26;1.00;;;0.90;;
54241;SDS011;40156;51.080;17.082;2023-04-15T14:12:54;1.13;;;0.60;;
54241;SDS011;40156;51.080;17.082;2023-04-15T14:15:21;4.03;;;1.77;;
54241;SDS011;40156;51.080;17.082;2023-04-15T14:17:49;2.17;;;1.10;;
54241;SDS011;40156;51.080;17.082;2023-04-15T14:20:17;1.35;;;0.95;;
54241;SDS011;40156;51.080;17.082;2023-04-15T14:22:44;1.75;;;0.75;;
54241;SDS011;40156;51.080;17.082;2023-04-15T14:25:12;0.60;;;0.60;;
54241;SDS011;40156;51.080;17.082;2023-04-15T14:27:56;0.77;;;0.65;;
54241;SDS011;40156;51.080;17.082;2023-04-15T14:30:24;0.88;;;0.55;;
54241;SDS011;40156;51.080;17.082;2023-04-15T14:32:51;0.65;;;0.60;;
54241;SDS011;40156;51.080;17.082;2023-04-15T14:35:19;0.35;;;0.32;;
54241;SDS011;40156;51.080;17.082;2023-04-15T14:37:46;1.00;;;0.57;;
54241;SDS011;40156;51.080;17.082;2023-04-15T14:40:14;0.70;;;0.55;;
54241;SDS011;40156;51.080;17.082;2023-04-15T14:42:41;1.17;;;0.65;;
54241;SDS011;40156;51.080;17.082;2023-04-15T14:45:09;0.90;;;0.63;;
54241;SDS011;40156;51.080;17.082;2023-04-15T14:47:36;0.77;;;0.60;;
54241;SDS011;40156;51.080;17.082;2023-04-15T14:50:04;0.75;;;0.50;;
54241;SDS011;40156;51.080;17.082;2023-04-15T14:52:32;0.70;;;0.50;;
54241;SDS011;40156;51.080;17.082;2023-04-15T14:54:59;1.13;;;0.70;;
54241;SDS011;40156;51.080;17.082;2023-04-15T14:57:26;0.95;;;0.60;;